N254SB KTEB-

Flight info

Callsign N254SB
Flight time N/A
Altitude VFR
Route SKYLINE SOUTH TO LGA
Aircraft C172/L-VGD/C

Departure

Time 2026-05-09 02:28
Airport Teterboro Airport (KTEB)

Arrival

Time N/A
Airport -
Time Latitude Longitude Altitude Speed Heading
2026-05-09 02:19 40.85526 -74.05486 14 ft 0 kts 316°
2026-05-09 02:22 40.85539 -74.05487 14 ft 4 kts 36°
2026-05-09 02:23 40.85529 -74.05464 14 ft 1 kts 190°
2026-05-09 02:23 40.85501 -74.05502 13 ft 11 kts 237°
2026-05-09 02:23 40.85432 -74.05601 11 ft 17 kts 226°
2026-05-09 02:23 40.85405 -74.05668 11 ft 3 kts 340°
2026-05-09 02:24 40.85413 -74.05666 12 ft 0 kts 33°
2026-05-09 02:24 40.85447 -74.05658 12 ft 16 kts 272°
2026-05-09 02:24 40.85351 -74.05816 11 ft 28 kts 229°
2026-05-09 02:24 40.85229 -74.06002 10 ft 24 kts 224°
2026-05-09 02:25 40.85129 -74.06092 10 ft 13 kts 174°
2026-05-09 02:25 40.85043 -74.06096 10 ft 12 kts 182°
2026-05-09 02:25 40.84966 -74.06101 10 ft 10 kts 186°
2026-05-09 02:25 40.84890 -74.06107 11 ft 15 kts 187°
2026-05-09 02:26 40.84738 -74.06118 11 ft 34 kts 181°
2026-05-09 02:26 40.84517 -74.06136 11 ft 29 kts 184°
2026-05-09 02:26 40.84340 -74.06148 11 ft 23 kts 182°
2026-05-09 02:26 40.84285 -74.06085 11 ft 14 kts 47°
2026-05-09 02:27 40.84322 -74.06032 12 ft 8 kts 31°
2026-05-09 02:27 40.84446 -74.05995 15 ft 39 kts
2026-05-09 02:27 40.84872 -74.05964 10 ft 82 kts
2026-05-09 02:27 40.85528 -74.05949 86 ft 99 kts 356°
2026-05-09 02:28 40.86179 -74.05969 305 ft 86 kts 26°
2026-05-09 02:28 40.86543 -74.05317 406 ft 92 kts 83°
2026-05-09 02:28 40.86328 -74.04543 535 ft 92 kts 119°
2026-05-09 02:28 40.86049 -74.03744 637 ft 91 kts 111°
2026-05-09 02:29 40.85858 -74.02920 700 ft 95 kts 104°
2026-05-09 02:29 40.85722 -74.02092 848 ft 92 kts 101°
2026-05-09 02:29 40.85619 -74.01255 972 ft 91 kts 98°
2026-05-09 02:29 40.85523 -74.00481 1130 ft 90 kts 103°
2026-05-09 02:30 40.85419 -73.99691 1320 ft 86 kts 99°
2026-05-09 02:30 40.85335 -73.98901 1470 ft 89 kts 98°
2026-05-09 02:30 40.85301 -73.98073 1624 ft 90 kts 92°
2026-05-09 02:30 40.85262 -73.97269 1810 ft 86 kts 114°
2026-05-09 02:31 40.84791 -73.96831 1871 ft 92 kts 166°
2026-05-09 02:31 40.84152 -73.96734 1933 ft 94 kts 185°
2026-05-09 02:31 40.83487 -73.96790 1978 ft 96 kts 192°
2026-05-09 02:31 40.82854 -73.97005 2004 ft 93 kts 200°
2026-05-09 02:32 40.82231 -73.97208 2032 ft 91 kts 198°
2026-05-09 02:32 40.81592 -73.97404 2017 ft 94 kts 199°
2026-05-09 02:32 40.80986 -73.97706 2013 ft 94 kts 205°
2026-05-09 02:32 40.80392 -73.98056 2004 ft 94 kts 208°
2026-05-09 02:33 40.79805 -73.98442 1974 ft 96 kts 211°
2026-05-09 02:33 40.79212 -73.98816 1992 ft 93 kts 208°
2026-05-09 02:33 40.78617 -73.99159 1982 ft 95 kts 207°
2026-05-09 02:33 40.78011 -73.99484 2029 ft 92 kts 207°
2026-05-09 02:34 40.77435 -73.99803 2066 ft 90 kts 206°
2026-05-09 02:34 40.76833 -74.00113 2069 ft 92 kts 206°
2026-05-09 02:34 40.76240 -74.00391 2131 ft 87 kts 208°
2026-05-09 02:34 40.75696 -74.00781 2102 ft 93 kts 209°
2026-05-09 02:35 40.75053 -74.01038 2038 ft 98 kts 199°
2026-05-09 02:35 40.74383 -74.01214 2009 ft 98 kts 195°
2026-05-09 02:35 40.73713 -74.01380 2001 ft 97 kts 197°
2026-05-09 02:35 40.73050 -74.01565 1987 ft 97 kts 195°
2026-05-09 02:36 40.72381 -74.01693 1994 ft 94 kts 192°
2026-05-09 02:36 40.71732 -74.01841 1990 ft 96 kts 194°
2026-05-09 02:36 40.71076 -74.01965 2007 ft 94 kts 195°
2026-05-09 02:36 40.70444 -74.02142 2018 ft 94 kts 196°
2026-05-09 02:37 40.69832 -74.02344 2096 ft 84 kts 220°
2026-05-09 02:37 40.69733 -74.03055 2046 ft 92 kts 296°
2026-05-09 02:37 40.70302 -74.03247 2172 ft 94 kts 17°
2026-05-09 02:37 40.70890 -74.02932 2325 ft 93 kts 16°
2026-05-09 02:38 40.71494 -74.02610 2453 ft 93 kts 15°
2026-05-09 02:38 40.72117 -74.02318 2515 ft 97 kts 13°
2026-05-09 02:38 40.72757 -74.02039 2516 ft 97 kts
2026-05-09 02:38 40.73429 -74.01813 2470 ft 101 kts
2026-05-09 02:39 40.74109 -74.01565 2416 ft 104 kts
2026-05-09 02:39 40.74794 -74.01324 2451 ft 97 kts
2026-05-09 02:39 40.75375 -74.00923 2494 ft 101 kts 37°
2026-05-09 02:39 40.75882 -74.00277 2501 ft 102 kts 41°
2026-05-09 02:40 40.76227 -73.99831 2470 ft 105 kts 40°
2026-05-09 02:40 40.76752 -73.99132 2412 ft 109 kts 44°
2026-05-09 02:40 40.77128 -73.98301 2407 ft 109 kts 75°
2026-05-09 02:40 40.77261 -73.97314 2382 ft 109 kts 82°
2026-05-09 02:41 40.77377 -73.96319 2244 ft 108 kts 83°
2026-05-09 02:41 40.77491 -73.95365 2111 ft 104 kts 80°
2026-05-09 02:41 40.77625 -73.94447 2011 ft 98 kts 81°
2026-05-09 02:41 40.77751 -73.93563 1865 ft 99 kts 79°
2026-05-09 02:42 40.78072 -73.92747 1797 ft 106 kts 50°
2026-05-09 02:42 40.78583 -73.92056 1831 ft 104 kts 43°
2026-05-09 02:42 40.79131 -73.91459 1875 ft 103 kts 36°
2026-05-09 02:42 40.79734 -73.90943 1886 ft 105 kts 28°
2026-05-09 02:43 40.80379 -73.90505 1917 ft 104 kts 19°
2026-05-09 02:43 40.81099 -73.90203 1849 ft 109 kts 14°
2026-05-09 02:43 40.81823 -73.89996 1884 ft 106 kts
2026-05-09 02:43 40.82546 -73.89861 1933 ft 102 kts 10°
2026-05-09 02:44 40.83207 -73.89583 2025 ft 98 kts 17°
2026-05-09 02:44 40.83815 -73.89189 2093 ft 101 kts 24°
2026-05-09 02:44 40.84268 -73.88503 2126 ft 98 kts 77°
2026-05-09 02:44 40.84113 -73.87705 2157 ft 89 kts 138°
2026-05-09 02:45 40.83644 -73.87080 1913 ft 107 kts 138°
2026-05-09 02:45 40.83161 -73.86417 1778 ft 95 kts 139°
2026-05-09 02:45 40.82680 -73.85878 1641 ft 88 kts 147°
2026-05-09 02:45 40.82178 -73.85441 1496 ft 83 kts 166°
2026-05-09 02:46 40.81596 -73.85197 1157 ft 90 kts 170°
2026-05-09 02:46 40.80974 -73.85235 813 ft 90 kts 194°
2026-05-09 02:46 40.80417 -73.85543 514 ft 88 kts 206°
2026-05-09 02:46 40.79912 -73.85955 362 ft 83 kts 207°
2026-05-09 02:47 40.79437 -73.86337 262 ft 78 kts 206°
2026-05-09 02:47 40.78978 -73.86718 147 ft 77 kts 207°
2026-05-09 02:47 40.78529 -73.87086 66 ft 75 kts 205°
2026-05-09 02:47 40.78096 -73.87444 10 ft 66 kts 205°
2026-05-09 02:48 40.77821 -73.87661 16 ft 25 kts 216°
2026-05-09 02:48 40.77698 -73.87771 19 ft 18 kts 209°
2026-05-09 02:48 40.77655 -73.87907 16 ft 16 kts 255°
2026-05-09 02:48 40.77634 -73.88045 15 ft 14 kts 263°
2026-05-09 02:49 40.77670 -73.88077 14 ft 11 kts 48°
2026-05-09 02:49 40.77733 -73.88062 14 ft 10 kts 345°
2026-05-09 02:49 40.77790 -73.88089 14 ft 9 kts 275°
2026-05-09 02:49 40.77775 -73.88104 14 ft 0 kts 159°